Time;durP1;ratioP1;P1;durP2;ratioP2;P2;SDS_P1;SDS_P2;PMS_P1;PMS_P2;Temp;Humidity;BMP_temperature;BMP_pressure;BME280_temperature;BME280_humidity;BME280_pressure;Samples;Min_cycle;Max_cycle;Signal;HPM_P1;HPM_P2
2021/03/31 00:00:02;;;;;;;6.40;4.63;;;13.20;59.40;;;;;;5092168;28;20559;-71
2021/03/31 00:02:28;;;;;;;8.73;5.10;;;13.10;59.30;;;;;;5091498;28;20225;-72
2021/03/31 00:04:54;;;;;;;7.35;4.70;;;13.00;59.50;;;;;;5092058;28;20317;-74
2021/03/31 00:07:20;;;;;;;8.13;4.95;;;13.00;59.80;;;;;;5091776;28;20340;-75
2021/03/31 00:09:47;;;;;;;8.63;4.93;;;13.00;59.70;;;;;;5091916;28;20294;-71
2021/03/31 00:12:13;;;;;;;7.63;5.05;;;13.00;59.60;;;;;;5092116;28;20284;-71
2021/03/31 00:14:40;;;;;;;7.80;4.90;;;13.00;59.60;;;;;;5095447;28;20649;-74
2021/03/31 00:17:07;;;;;;;10.88;5.55;;;13.00;59.60;;;;;;5095252;28;20286;-75
2021/03/31 00:19:33;;;;;;;7.63;4.93;;;12.90;59.60;;;;;;5095674;28;20292;-76
2021/03/31 00:21:59;;;;;;;7.60;5.30;;;12.90;60.10;;;;;;5096177;28;20566;-74
2021/03/31 00:24:25;;;;;;;6.68;5.35;;;12.80;59.70;;;;;;5095506;28;20225;-73
2021/03/31 00:26:52;;;;;;;7.32;4.55;;;12.80;60.80;;;;;;5095737;28;20564;-74
2021/03/31 00:29:18;;;;;;;7.95;4.32;;;12.90;60.40;;;;;;5095575;28;20202;-74
2021/03/31 00:31:45;;;;;;;8.48;4.97;;;12.80;60.20;;;;;;5095714;28;20566;-70
2021/03/31 00:34:12;;;;;;;9.10;5.60;;;12.80;60.60;;;;;;5095401;28;20202;-74
2021/03/31 00:36:38;;;;;;;8.60;5.38;;;12.70;60.80;;;;;;5095133;28;20222;-70
2021/03/31 00:39:06;;;;;;;9.20;6.05;;;12.70;61.60;;;;;;5095007;28;20233;-72
2021/03/31 00:41:33;;;;;;;9.05;5.10;;;12.60;62.00;;;;;;5095025;28;20288;-72
2021/03/31 00:43:59;;;;;;;8.25;4.88;;;12.60;62.30;;;;;;5094643;28;20308;-71
2021/03/31 00:46:25;;;;;;;8.70;4.82;;;12.60;62.60;;;;;;5094999;28;20228;-73
2021/03/31 00:48:53;;;;;;;9.63;5.13;;;12.60;62.80;;;;;;5095007;28;20742;-71
2021/03/31 00:51:19;;;;;;;9.30;5.05;;;12.50;62.90;;;;;;5095039;28;20198;-72
2021/03/31 00:53:46;;;;;;;6.80;4.63;;;12.50;63.00;;;;;;5094839;28;20289;-71
2021/03/31 00:56:13;;;;;;;7.53;4.90;;;12.50;63.00;;;;;;5095216;28;20226;-69
2021/03/31 00:58:39;;;;;;;8.30;4.85;;;12.40;63.00;;;;;;5096941;28;20206;-68
2021/03/31 01:01:06;;;;;;;7.70;4.70;;;12.40;63.40;;;;;;5096494;28;20205;-67
2021/03/31 01:03:32;;;;;;;7.53;5.05;;;12.30;64.00;;;;;;5096084;28;20706;-67
2021/03/31 01:05:59;;;;;;;8.05;5.47;;;12.20;64.70;;;;;;5096432;28;20226;-67
2021/03/31 01:08:26;;;;;;;8.15;4.90;;;12.30;65.40;;;;;;5096678;28;20597;-67
2021/03/31 01:10:55;;;;;;;6.53;4.85;;;12.30;65.50;;;;;;5096761;28;20244;-67
2021/03/31 01:13:45;;;;;;;6.93;4.45;;;12.40;64.80;;;;;;5096681;28;20636;-67
2021/03/31 01:16:25;;;;;;;8.43;4.95;;;12.20;64.50;;;;;;5096112;28;20225;-67
2021/03/31 01:18:55;;;;;;;9.38;4.80;;;12.30;64.70;;;;;;5096108;28;20644;-67
2021/03/31 01:22:12;;;;;;;8.80;5.60;;;12.30;65.30;;;;;;5096238;28;20202;-67
2021/03/31 01:25:13;;;;;;;11.35;5.80;;;12.30;65.60;;;;;;5084448;28;20222;-67
2021/03/31 01:27:54;;;;;;;9.63;6.00;;;12.30;65.90;;;;;;5096282;28;20197;-67
2021/03/31 01:30:30;;;;;;;9.85;5.82;;;12.20;66.40;;;;;;5095514;28;20212;-67
2021/03/31 01:33:42;;;;;;;11.90;6.18;;;12.10;66.60;;;;;;5095638;28;20288;-67
2021/03/31 01:36:11;;;;;;;8.05;4.75;;;12.00;66.70;;;;;;5095927;28;20354;-67
2021/03/31 01:38:41;;;;;;;9.70;5.68;;;12.00;66.80;;;;;;5095298;28;20782;-67
2021/03/31 01:41:09;;;;;;;9.23;5.70;;;12.00;67.00;;;;;;5095639;28;20209;-67
2021/03/31 01:43:35;;;;;;;8.38;4.70;;;12.00;67.10;;;;;;5095758;28;20282;-68
2021/03/31 01:46:02;;;;;;;10.00;5.75;;;12.00;67.00;;;;;;5095777;28;20232;-66
2021/03/31 01:48:32;;;;;;;8.57;5.43;;;11.90;67.40;;;;;;5095958;28;20282;-67
2021/03/31 01:51:02;;;;;;;12.55;5.25;;;12.00;67.90;;;;;;5095260;28;20644;-67
2021/03/31 01:53:31;;;;;;;8.95;5.45;;;11.90;67.70;;;;;;5095486;28;20649;-67
2021/03/31 01:55:58;;;;;;;9.25;5.45;;;11.90;68.10;;;;;;5095012;28;20280;-67
2021/03/31 01:58:25;;;;;;;9.75;5.70;;;11.80;68.60;;;;;;5095502;28;20205;-67
2021/03/31 02:00:52;;;;;;;7.53;5.25;;;11.80;69.00;;;;;;5095426;28;20266;-67
2021/03/31 02:03:21;;;;;;;11.20;5.00;;;11.80;69.00;;;;;;5095430;28;20228;-67
2021/03/31 02:05:48;;;;;;;7.05;5.38;;;11.70;69.00;;;;;;5095125;28;20278;-67
2021/03/31 02:08:15;;;;;;;9.65;5.25;;;11.70;68.80;;;;;;5094475;28;20254;-67
2021/03/31 02:10:44;;;;;;;8.13;5.85;;;11.80;68.80;;;;;;5095149;28;20202;-67
2021/03/31 02:13:12;;;;;;;9.90;5.40;;;11.70;68.70;;;;;;5095162;28;20289;-67
2021/03/31 02:15:41;;;;;;;9.07;5.78;;;11.70;69.60;;;;;;5094684;28;20779;-67
2021/03/31 02:18:09;;;;;;;6.82;5.38;;;11.70;69.80;;;;;;5094675;28;20206;-67
2021/03/31 02:20:36;;;;;;;7.25;5.25;;;11.60;70.00;;;;;;5094633;28;20231;-67
2021/03/31 02:23:04;;;;;;;12.05;5.00;;;11.50;70.30;;;;;;5095211;28;20226;-67
2021/03/31 02:25:31;;;;;;;9.27;5.45;;;11.50;70.60;;;;;;5094597;28;20247;-67
2021/03/31 02:27:58;;;;;;;7.88;5.22;;;11.50;70.70;;;;;;5094696;28;20208;-67
2021/03/31 02:30:27;;;;;;;8.35;5.13;;;11.40;70.80;;;;;;5094951;28;20297;-67
2021/03/31 02:32:58;;;;;;;10.27;5.32;;;11.40;71.30;;;;;;5094509;28;20198;-67
2021/03/31 02:35:24;;;;;;;8.45;5.47;;;11.40;71.00;;;;;;5094631;28;20226;-67
2021/03/31 02:37:53;;;;;;;8.45;5.70;;;11.50;71.00;;;;;;5094634;28;20621;-67
2021/03/31 02:40:20;;;;;;;9.25;6.10;;;11.40;71.50;;;;;;5094672;28;20568;-67
2021/03/31 02:42:48;;;;;;;7.90;6.00;;;11.30;72.30;;;;;;5094991;28;20249;-67
2021/03/31 02:45:17;;;;;;;12.05;6.10;;;11.30;72.80;;;;;;5094798;28;20316;-67
2021/03/31 02:47:45;;;;;;;9.20;5.80;;;11.40;73.30;;;;;;5094449;28;20205;-66
2021/03/31 02:50:14;;;;;;;11.20;7.35;;;11.20;73.70;;;;;;5094726;28;20205;-67
2021/03/31 02:52:43;;;;;;;6.68;5.10;;;11.10;74.40;;;;;;5094818;28;20198;-67
2021/03/31 02:55:11;;;;;;;8.38;5.65;;;11.10;74.60;;;;;;5094367;28;20222;-67
2021/03/31 02:57:38;;;;;;;10.18;5.85;;;11.10;74.90;;;;;;5093850;28;20288;-66
2021/03/31 03:00:06;;;;;;;10.82;5.50;;;11.10;75.40;;;;;;5094506;28;20204;-67
2021/03/31 03:02:35;;;;;;;8.50;5.80;;;11.10;75.40;;;;;;5094238;28;20205;-67
2021/03/31 03:05:03;;;;;;;12.38;6.25;;;11.10;75.80;;;;;;5094518;28;20218;-67
2021/03/31 03:07:30;;;;;;;13.02;6.13;;;11.00;76.20;;;;;;5094360;28;20197;-67
2021/03/31 03:09:57;;;;;;;9.52;5.47;;;11.00;76.80;;;;;;5094253;28;20297;-67
2021/03/31 03:12:23;;;;;;;9.07;5.70;;;11.00;77.00;;;;;;5093854;28;20662;-67
2021/03/31 03:14:52;;;;;;;10.32;5.82;;;10.90;76.60;;;;;;5093996;28;20218;-67
2021/03/31 03:17:19;;;;;;;10.50;5.65;;;10.80;76.70;;;;;;5094583;28;20633;-67
2021/03/31 03:19:46;;;;;;;11.20;5.72;;;10.90;76.90;;;;;;5094295;28;20285;-67
2021/03/31 03:22:14;;;;;;;8.57;5.07;;;10.90;77.20;;;;;;5094532;28;20292;-67
2021/03/31 03:24:44;;;;;;;8.93;5.65;;;10.90;76.80;;;;;;5094323;28;20710;-67
2021/03/31 03:27:13;;;;;;;12.50;5.82;;;10.80;77.10;;;;;;5093882;28;20202;-67
2021/03/31 03:29:43;;;;;;;16.17;6.25;;;10.90;77.00;;;;;;5094308;28;20206;-67
2021/03/31 03:32:09;;;;;;;10.20;6.20;;;10.80;77.00;;;;;;5094231;28;20208;-67
2021/03/31 03:34:37;;;;;;;10.15;6.10;;;10.80;77.60;;;;;;5094299;28;20198;-67
2021/03/31 03:37:05;;;;;;;8.55;5.20;;;10.70;77.60;;;;;;5093269;28;20731;-67
2021/03/31 03:39:31;;;;;;;6.28;4.85;;;10.80;77.90;;;;;;5093713;28;20233;-67
2021/03/31 03:41:58;;;;;;;9.15;5.80;;;10.80;78.00;;;;;;5093807;28;20216;-67
2021/03/31 03:44:24;;;;;;;8.15;5.65;;;10.80;77.90;;;;;;5093293;28;20317;-67
2021/03/31 03:46:55;;;;;;;11.65;6.20;;;10.80;77.30;;;;;;5093627;28;20262;-67
2021/03/31 03:49:21;;;;;;;10.27;6.15;;;10.80;76.80;;;;;;5098401;28;20296;-67
2021/03/31 03:51:49;;;;;;;11.45;5.75;;;10.80;76.80;;;;;;5097661;28;20213;-67
2021/03/31 03:54:16;;;;;;;9.35;6.03;;;10.80;77.20;;;;;;5097883;28;20223;-67
2021/03/31 03:56:46;;;;;;;8.00;5.25;;;10.80;77.80;;;;;;5097242;28;20225;-67
2021/03/31 03:59:17;;;;;;;10.80;5.70;;;10.70;77.70;;;;;;5097736;28;20297;-67
2021/03/31 04:01:44;;;;;;;9.57;5.40;;;10.80;77.80;;;;;;5097271;28;20202;-67
2021/03/31 04:04:10;;;;;;;8.20;5.22;;;10.80;77.60;;;;;;5097710;28;20317;-67
2021/03/31 04:06:36;;;;;;;10.10;5.65;;;10.70;77.70;;;;;;5097171;28;20244;-67
2021/03/31 04:09:03;;;;;;;9.65;5.72;;;10.70;78.00;;;;;;5096980;28;20286;-67
2021/03/31 04:11:32;;;;;;;9.98;5.40;;;10.60;78.30;;;;;;5097464;28;20293;-67
2021/03/31 04:14:00;;;;;;;12.35;6.28;;;10.50;78.50;;;;;;5097536;28;20202;-67
2021/03/31 04:16:29;;;;;;;10.85;5.80;;;10.50;78.90;;;;;;5097275;28;20699;-67
2021/03/31 04:18:58;;;;;;;11.52;6.50;;;10.50;79.30;;;;;;5097476;28;20212;-67
2021/03/31 04:21:25;;;;;;;8.50;5.60;;;10.40;79.70;;;;;;5097390;28;20198;-67
2021/03/31 04:23:51;;;;;;;10.80;5.60;;;10.40;80.10;;;;;;5097326;28;20705;-67
2021/03/31 04:26:20;;;;;;;9.73;5.95;;;10.40;80.00;;;;;;5097174;28;20699;-67
2021/03/31 04:28:48;;;;;;;8.82;5.47;;;10.30;80.50;;;;;;5097583;28;20204;-67
2021/03/31 04:31:14;;;;;;;9.63;6.13;;;10.20;81.80;;;;;;5097495;28;20540;-67
2021/03/31 04:33:41;;;;;;;10.20;5.90;;;10.20;82.30;;;;;;5097254;28;20200;-67
2021/03/31 04:36:08;;;;;;;11.50;5.05;;;10.30;81.30;;;;;;5096940;28;20263;-67
2021/03/31 04:38:34;;;;;;;12.98;6.00;;;10.30;81.20;;;;;;5097804;28;20575;-66
2021/03/31 04:41:02;;;;;;;9.70;5.47;;;10.30;81.20;;;;;;5097325;28;20198;-67
2021/03/31 04:43:32;;;;;;;7.45;5.45;;;10.30;81.80;;;;;;5097351;28;20567;-67
2021/03/31 04:46:00;;;;;;;9.15;5.57;;;10.30;82.30;;;;;;5096536;28;20230;-67
2021/03/31 04:48:27;;;;;;;8.82;5.50;;;10.40;82.30;;;;;;5097254;28;20643;-67
2021/03/31 04:50:53;;;;;;;10.82;6.20;;;10.30;82.20;;;;;;5097068;28;20201;-67
2021/03/31 04:53:20;;;;;;;10.18;5.57;;;10.40;82.70;;;;;;5096869;28;20205;-67
2021/03/31 04:55:46;;;;;;;11.35;6.45;;;10.30;82.70;;;;;;5096599;28;20634;-67
2021/03/31 04:58:13;;;;;;;8.60;6.32;;;10.30;83.50;;;;;;5096526;28;20305;-67
2021/03/31 05:00:39;;;;;;;9.77;5.60;;;10.20;84.80;;;;;;5095551;28;20206;-67
2021/03/31 05:03:07;;;;;;;8.80;5.50;;;10.20;85.30;;;;;;5096660;28;20312;-67
2021/03/31 05:05:34;;;;;;;14.07;6.85;;;10.20;84.50;;;;;;5096861;28;20222;-67
2021/03/31 05:08:00;;;;;;;9.75;5.90;;;10.20;85.10;;;;;;5096710;28;20202;-67
2021/03/31 05:10:27;;;;;;;11.25;5.60;;;10.30;84.20;;;;;;5096736;28;20220;-67
2021/03/31 05:12:54;;;;;;;9.15;5.63;;;10.40;84.20;;;;;;5096809;28;20675;-67
2021/03/31 05:15:21;;;;;;;11.35;6.05;;;10.40;83.00;;;;;;5096529;28;20335;-67
2021/03/31 05:17:47;;;;;;;10.65;6.15;;;10.40;83.20;;;;;;5096446;28;20208;-67
2021/03/31 05:20:17;;;;;;;8.98;5.43;;;10.40;84.40;;;;;;5096547;28;20598;-67
2021/03/31 05:22:43;;;;;;;8.77;5.45;;;10.40;83.90;;;;;;5096155;28;20202;-67
2021/03/31 05:25:11;;;;;;;9.68;5.68;;;10.50;83.40;;;;;;5096326;28;20222;-67
2021/03/31 05:27:38;;;;;;;10.43;6.15;;;10.50;83.20;;;;;;5095846;28;20315;-67
2021/03/31 05:30:06;;;;;;;10.57;5.75;;;10.40;83.60;;;;;;5096486;28;20202;-67
2021/03/31 05:32:32;;;;;;;8.32;5.90;;;10.30;84.00;;;;;;5096296;28;20211;-67
2021/03/31 05:34:59;;;;;;;9.65;6.03;;;10.30;84.20;;;;;;5096157;28;20371;-67
2021/03/31 05:37:26;;;;;;;11.70;6.15;;;10.30;84.60;;;;;;5095515;28;20296;-67
2021/03/31 05:39:53;;;;;;;10.63;6.25;;;10.40;84.70;;;;;;5096551;28;20202;-67
2021/03/31 05:42:19;;;;;;;9.63;6.40;;;10.50;84.30;;;;;;5096145;28;20216;-67
2021/03/31 05:44:46;;;;;;;11.35;6.30;;;10.50;83.40;;;;;;5095884;28;20226;-67
2021/03/31 05:47:19;;;;;;;9.30;6.50;;;10.50;84.50;;;;;;5095817;28;20234;-67
2021/03/31 05:49:46;;;;;;;10.32;6.32;;;10.30;86.20;;;;;;5096073;28;20339;-67
2021/03/31 05:52:13;;;;;;;9.55;6.13;;;10.40;86.70;;;;;;5095914;28;20581;-67
2021/03/31 05:54:40;;;;;;;9.05;6.00;;;10.40;86.30;;;;;;5096133;28;20218;-67
2021/03/31 05:57:08;;;;;;;12.93;6.85;;;10.50;86.20;;;;;;5095479;28;20202;-67
2021/03/31 05:59:36;;;;;;;10.90;6.75;;;10.50;86.50;;;;;;5096288;28;20228;-67
2021/03/31 06:02:05;;;;;;;10.85;6.88;;;10.60;86.30;;;;;;5095807;28;20613;-67
2021/03/31 06:04:31;;;;;;;11.82;6.90;;;10.50;86.50;;;;;;5095691;28;20226;-67
2021/03/31 06:06:57;;;;;;;14.48;7.03;;;10.40;86.20;;;;;;5095777;28;20206;-66
2021/03/31 06:09:24;;;;;;;12.57;6.70;;;10.50;85.90;;;;;;5095469;28;20294;-67
2021/03/31 06:11:53;;;;;;;9.77;6.93;;;10.60;85.50;;;;;;5094538;28;20206;-67
2021/03/31 06:14:29;;;;;;;10.65;7.05;;;10.70;85.50;;;;;;5095118;28;20285;-67
2021/03/31 06:17:07;;;;;;;11.93;6.78;;;10.80;85.80;;;;;;5095001;28;20194;-67
2021/03/31 06:19:34;;;;;;;12.02;7.35;;;10.80;85.80;;;;;;5095191;28;20662;-67
2021/03/31 06:22:08;;;;;;;11.48;7.53;;;10.90;86.20;;;;;;5094810;28;20240;-67
2021/03/31 06:24:42;;;;;;;12.35;7.43;;;11.00;84.80;;;;;;5094750;28;20576;-67
2021/03/31 06:27:10;;;;;;;11.18;7.18;;;11.10;84.50;;;;;;5094592;28;20187;-67
2021/03/31 06:29:43;;;;;;;11.50;7.50;;;11.00;85.00;;;;;;5094994;28;20549;-67
2021/03/31 06:32:19;;;;;;;10.30;7.00;;;10.80;85.30;;;;;;5094323;28;20681;-67
2021/03/31 06:34:53;;;;;;;11.90;6.82;;;10.70;86.50;;;;;;5094162;28;20217;-67
2021/03/31 06:37:26;;;;;;;9.65;5.88;;;10.70;86.80;;;;;;5094575;28;20212;-67
2021/03/31 06:39:53;;;;;;;10.40;7.18;;;10.50;88.50;;;;;;5094548;28;20205;-67
2021/03/31 06:42:22;;;;;;;9.07;6.80;;;10.30;90.00;;;;;;5094822;28;20293;-67
2021/03/31 06:44:58;;;;;;;10.27;7.20;;;10.20;91.40;;;;;;5093893;28;20664;-67
2021/03/31 06:47:28;;;;;;;8.07;6.90;;;10.30;91.90;;;;;;5094324;28;20201;-67
2021/03/31 06:49:58;;;;;;;8.35;6.15;;;10.30;91.70;;;;;;5094532;28;20549;-67
2021/03/31 06:52:26;;;;;;;8.82;7.03;;;10.30;92.30;;;;;;5094465;28;20198;-67
2021/03/31 06:54:54;;;;;;;10.55;6.95;;;10.30;92.60;;;;;;5094046;28;20222;-67
2021/03/31 06:57:28;;;;;;;13.23;6.72;;;10.30;92.30;;;;;;5093831;28;20670;-67
2021/03/31 07:00:08;;;;;;;8.80;6.80;;;10.30;92.60;;;;;;5093918;28;20679;-67
2021/03/31 07:02:36;;;;;;;11.38;7.65;;;10.20;93.40;;;;;;5094401;28;20209;-67
2021/03/31 07:05:04;;;;;;;12.85;7.65;;;10.20;94.00;;;;;;5093993;28;20237;-67
2021/03/31 07:07:32;;;;;;;10.48;7.35;;;10.20;93.60;;;;;;5093807;28;20613;-67
2021/03/31 07:10:08;;;;;;;11.07;7.75;;;10.30;93.50;;;;;;5094009;28;20213;-67
2021/03/31 07:12:41;;;;;;;11.90;7.50;;;10.30;94.00;;;;;;5094107;28;20293;-67
2021/03/31 07:15:09;;;;;;;10.98;7.10;;;10.40;93.50;;;;;;5094216;28;20224;-67
2021/03/31 07:17:37;;;;;;;10.85;7.18;;;10.50;93.80;;;;;;5093795;28;20202;-67
2021/03/31 07:20:04;;;;;;;13.02;7.43;;;10.90;93.30;;;;;;5094269;28;20202;-67
2021/03/31 07:22:31;;;;;;;13.68;7.20;;;11.20;93.00;;;;;;5093140;28;20201;-67
2021/03/31 07:25:01;;;;;;;9.50;7.22;;;11.40;92.30;;;;;;5093663;28;20236;-67
2021/03/31 07:27:28;;;;;;;9.43;7.03;;;11.70;91.00;;;;;;5093569;28;20289;-67
2021/03/31 07:30:09;;;;;;;10.18;8.02;;;11.90;90.10;;;;;;5094025;28;20206;-67
2021/03/31 07:32:45;;;;;;;16.48;8.55;;;12.00;89.40;;;;;;5094167;28;20564;-67
2021/03/31 07:35:14;;;;;;;14.10;7.53;;;11.80;89.00;;;;;;5093686;28;20226;-67
2021/03/31 07:37:42;;;;;;;14.00;8.52;;;11.70;90.90;;;;;;5093743;28;20206;-67
2021/03/31 07:40:11;;;;;;;11.93;8.00;;;11.70;90.70;;;;;;5094026;28;20300;-67
2021/03/31 07:42:40;;;;;;;13.50;7.57;;;11.70;90.60;;;;;;5093965;28;20289;-67
2021/03/31 07:45:11;;;;;;;11.73;7.85;;;11.90;90.30;;;;;;5093186;28;20221;-67
2021/03/31 07:47:40;;;;;;;13.57;8.40;;;11.90;90.40;;;;;;5093637;28;20206;-67
2021/03/31 07:50:07;;;;;;;13.43;7.65;;;11.90;90.00;;;;;;5093984;28;20209;-67
2021/03/31 07:52:55;;;;;;;14.15;8.25;;;11.80;90.00;;;;;;5090858;28;20310;-67
2021/03/31 07:55:35;;;;;;;11.32;7.60;;;11.90;89.50;;;;;;5079988;28;20317;-68
2021/03/31 07:58:21;;;;;;;13.65;8.23;;;11.90;89.80;;;;;;5072233;28;20289;-67
2021/03/31 08:01:04;;;;;;;12.70;7.70;;;12.20;89.80;;;;;;5072234;28;20278;-67
2021/03/31 08:03:35;;;;;;;11.60;8.30;;;12.40;88.00;;;;;;5071955;28;20231;-67
2021/03/31 08:06:22;;;;;;;14.07;8.43;;;12.30;89.60;;;;;;5071796;28;20681;-67
2021/03/31 08:09:04;;;;;;;9.60;7.10;;;12.30;89.10;;;;;;5071840;28;20210;-67
2021/03/31 08:12:02;;;;;;;15.82;7.88;;;12.40;90.00;;;;;;5072065;28;20213;-67
2021/03/31 08:14:47;;;;;;;12.55;7.57;;;12.50;89.10;;;;;;5072035;28;20336;-67
2021/03/31 08:17:16;;;;;;;12.02;8.65;;;12.70;90.00;;;;;;5071651;28;20207;-67
2021/03/31 08:19:47;;;;;;;11.23;8.27;;;12.80;88.90;;;;;;5071779;28;20211;-67
2021/03/31 08:22:45;;;;;;;10.13;7.00;;;12.80;90.40;;;;;;5071697;28;20260;-67
2021/03/31 08:25:19;;;;;;;11.25;7.70;;;12.80;90.10;;;;;;5071814;28;20313;-67
2021/03/31 08:28:04;;;;;;;12.63;7.75;;;13.00;90.10;;;;;;5071616;28;20206;-70
2021/03/31 08:30:33;;;;;;;8.95;7.30;;;13.20;89.30;;;;;;5072009;28;20245;-71
2021/03/31 08:33:00;;;;;;;12.38;8.68;;;13.40;88.10;;;;;;5072492;28;20294;-71
2021/03/31 08:35:29;;;;;;;11.68;8.57;;;13.60;87.60;;;;;;5076132;28;20218;-72
2021/03/31 08:37:55;;;;;;;16.30;8.27;;;13.80;86.60;;;;;;5075864;28;20202;-72
2021/03/31 08:40:22;;;;;;;11.25;8.15;;;14.00;85.50;;;;;;5076663;28;20411;-70
2021/03/31 08:42:54;;;;;;;10.60;6.95;;;14.10;86.20;;;;;;5076395;28;20202;-69
2021/03/31 08:45:29;;;;;;;10.15;7.57;;;14.30;86.20;;;;;;5076050;28;20229;-70
2021/03/31 08:47:58;;;;;;;13.80;7.47;;;14.40;85.80;;;;;;5076352;28;20618;-69
2021/03/31 08:50:28;;;;;;;14.98;7.30;;;14.60;86.20;;;;;;5075996;28;20210;-70
2021/03/31 08:53:00;;;;;;;10.57;7.55;;;14.80;84.10;;;;;;5076688;28;20203;-69
2021/03/31 08:55:35;;;;;;;14.38;6.90;;;15.00;83.40;;;;;;5075949;28;20310;-69
2021/03/31 08:58:07;;;;;;;9.50;7.25;;;15.20;81.50;;;;;;5075865;28;20318;-69
2021/03/31 09:00:46;;;;;;;10.10;7.25;;;15.60;80.90;;;;;;5076282;28;20222;-69
2021/03/31 09:03:13;;;;;;;11.23;6.90;;;16.10;79.20;;;;;;5076043;28;20221;-69
2021/03/31 09:05:52;;;;;;;8.82;7.38;;;16.60;77.20;;;;;;5075702;28;20234;-69
2021/03/31 09:08:21;;;;;;;9.38;7.22;;;17.20;75.20;;;;;;5075777;28;20290;-69
2021/03/31 09:10:54;;;;;;;10.55;7.10;;;17.70;72.70;;;;;;5075925;28;20294;-69
2021/03/31 09:13:29;;;;;;;9.50;7.20;;;17.90;71.90;;;;;;5076319;28;20233;-70
2021/03/31 09:16:01;;;;;;;11.60;7.00;;;18.10;71.60;;;;;;5076090;28;20293;-71
2021/03/31 09:18:32;;;;;;;10.23;6.85;;;18.20;72.30;;;;;;5076110;28;20210;-70
2021/03/31 09:20:59;;;;;;;11.40;6.45;;;18.20;71.30;;;;;;5075780;28;20207;-70
2021/03/31 09:23:26;;;;;;;10.57;6.90;;;18.30;70.80;;;;;;5075459;28;20214;-70
2021/03/31 09:25:58;;;;;;;9.63;6.55;;;18.40;68.80;;;;;;5076216;28;20222;-69
2021/03/31 09:28:25;;;;;;;11.18;6.63;;;18.80;68.10;;;;;;5075830;28;20256;-69
2021/03/31 09:30:53;;;;;;;8.27;5.72;;;19.10;66.40;;;;;;5075525;28;20623;-70
2021/03/31 09:33:31;;;;;;;8.57;6.43;;;19.20;65.40;;;;;;5075338;28;20199;-69
2021/03/31 09:36:11;;;;;;;6.80;5.63;;;19.30;64.50;;;;;;5075595;28;20473;-69
2021/03/31 09:38:38;;;;;;;9.03;6.43;;;19.50;64.10;;;;;;5075490;28;20443;-70
2021/03/31 09:41:06;;;;;;;8.67;6.70;;;19.80;62.60;;;;;;5075582;28;20529;-69
2021/03/31 09:43:33;;;;;;;6.83;5.63;;;20.20;61.10;;;;;;5075129;28;20839;-70
2021/03/31 09:45:59;;;;;;;8.87;6.30;;;20.80;59.40;;;;;;5074042;28;20966;-69
2021/03/31 09:48:26;;;;;;;7.50;6.20;;;21.40;58.40;;;;;;5075027;28;20437;-69
2021/03/31 09:50:52;;;;;;;7.40;5.90;;;22.30;56.90;;;;;;5075243;28;20439;-70
2021/03/31 09:53:23;;;;;;;7.70;6.90;;;23.30;54.20;;;;;;5075334;28;20521;-70
2021/03/31 09:55:51;;;;;;;9.90;7.53;;;24.60;51.70;;;;;;5074740;28;20997;-70
2021/03/31 09:58:28;;;;;;;8.67;6.83;;;26.30;48.30;;;;;;5075269;28;20491;-70
2021/03/31 10:00:55;;;;;;;8.00;6.90;;;27.90;43.70;;;;;;5074829;28;20481;-70
2021/03/31 10:03:23;;;;;;;7.37;6.67;;;28.90;40.80;;;;;;5074734;28;20523;-70
2021/03/31 10:05:49;;;;;;;7.50;6.80;;;29.60;38.50;;;;;;5074689;28;20471;-70
2021/03/31 10:08:22;;;;;;;7.70;7.00;;;30.30;37.80;;;;;;5074952;28;20448;-70
2021/03/31 10:10:50;;;;;;;7.80;7.00;;;30.40;36.60;;;;;;5075124;28;20448;-68
2021/03/31 10:13:18;;;;;;;8.17;6.70;;;30.60;35.70;;;;;;5074728;28;20532;-68
2021/03/31 10:15:47;;;;;;;9.67;6.70;;;31.10;35.20;;;;;;5074866;28;20773;-69
2021/03/31 10:18:15;;;;;;;9.40;7.30;;;31.10;35.00;;;;;;5074684;28;20438;-68
2021/03/31 10:20:46;;;;;;;10.53;6.50;;;30.50;34.80;;;;;;5074712;28;20972;-69
2021/03/31 10:23:29;;;;;;;10.03;6.67;;;30.80;35.00;;;;;;5074852;28;20475;-69
2021/03/31 10:26:17;;;;;;;7.27;6.50;;;31.40;34.10;;;;;;5074610;28;20470;-70
2021/03/31 10:28:44;;;;;;;8.03;7.20;;;31.90;34.10;;;;;;5074381;28;20444;-69
2021/03/31 10:31:22;;;;;;;8.17;7.27;;;32.80;32.80;;;;;;5074734;28;20441;-69
2021/03/31 10:33:49;;;;;;;8.00;6.90;;;33.10;31.50;;;;;;5074251;28;20539;-69
2021/03/31 10:36:34;;;;;;;10.50;7.80;;;33.70;31.10;;;;;;5073832;28;21125;-68
2021/03/31 10:39:24;;;;;;;9.60;7.73;;;34.40;29.80;;;;;;5074416;28;20841;-69
2021/03/31 10:47:26;;;;;;;8.23;7.43;;;33.70;29.70;;;;;;5048108;28;20421;-69
2021/03/31 10:49:54;;;;;;;7.80;6.67;;;33.50;29.20;;;;;;5073987;28;20441;-69
2021/03/31 10:52:22;;;;;;;9.13;7.57;;;33.60;29.00;;;;;;5074432;28;20476;-69
2021/03/31 10:54:48;;;;;;;8.07;7.27;;;33.30;28.90;;;;;;5073931;28;20470;-69
2021/03/31 10:57:15;;;;;;;10.77;7.67;;;32.50;30.00;;;;;;5073828;28;20441;-69
2021/03/31 10:59:42;;;;;;;8.70;6.47;;;31.60;30.00;;;;;;5073947;28;20984;-69
2021/03/31 11:02:11;;;;;;;9.67;7.63;;;31.60;30.40;;;;;;5073849;28;20541;-70
2021/03/31 11:04:37;;;;;;;8.20;6.93;;;31.80;29.90;;;;;;5074003;28;20618;-69
2021/03/31 11:07:04;;;;;;;10.90;7.37;;;33.00;30.00;;;;;;5073308;28;20866;-69
2021/03/31 11:09:30;;;;;;;8.77;7.77;;;33.90;28.90;;;;;;5073429;28;20528;-69
2021/03/31 11:11:57;;;;;;;9.50;8.17;;;34.70;27.50;;;;;;5073673;28;20970;-70
2021/03/31 11:14:25;;;;;;;9.07;7.80;;;34.60;27.10;;;;;;5073648;28;20803;-69
2021/03/31 11:16:56;;;;;;;10.60;7.43;;;34.00;27.60;;;;;;5073807;28;20441;-69
2021/03/31 11:27:28;;;;;;;8.83;7.53;;;35.60;25.40;;;;;;5073903;28;20447;-69
2021/03/31 11:29:55;;;;;;;9.70;7.20;;;35.90;24.20;;;;;;5073499;28;20539;-69
2021/03/31 11:32:22;;;;;;;7.73;6.80;;;35.30;25.50;;;;;;5073519;28;20547;-69
2021/03/31 11:34:48;;;;;;;8.50;7.27;;;35.50;25.10;;;;;;5073492;28;20464;-69
2021/03/31 11:37:14;;;;;;;9.50;7.70;;;35.40;24.80;;;;;;5073520;28;20455;-69
2021/03/31 11:39:40;;;;;;;8.57;7.20;;;35.00;24.10;;;;;;5073632;28;20919;-69
2021/03/31 11:42:07;;;;;;;8.00;7.20;;;34.80;23.90;;;;;;5073774;28;20498;-69
2021/03/31 11:44:33;;;;;;;9.80;7.60;;;34.50;24.70;;;;;;5073234;28;20506;-69
2021/03/31 11:47:00;;;;;;;7.00;6.30;;;34.50;24.90;;;;;;5073279;28;20449;-69
2021/03/31 11:49:27;;;;;;;6.60;6.00;;;33.90;24.50;;;;;;5073505;28;20833;-69
2021/03/31 11:51:53;;;;;;;6.83;6.13;;;32.50;25.30;;;;;;5073369;28;20536;-69
2021/03/31 11:54:19;;;;;;;8.97;6.70;;;31.00;26.40;;;;;;5073633;28;20871;-68
2021/03/31 11:56:45;;;;;;;8.00;6.23;;;29.60;27.60;;;;;;5073105;28;20512;-68
2021/03/31 11:59:12;;;;;;;7.80;6.07;;;28.80;28.90;;;;;;5073206;28;20459;-70
2021/03/31 12:01:38;;;;;;;9.53;7.30;;;28.80;29.60;;;;;;5073331;28;20537;-70
2021/03/31 12:04:06;;;;;;;10.63;7.30;;;28.60;29.50;;;;;;5073060;28;20483;-70
2021/03/31 12:06:32;;;;;;;9.20;7.37;;;27.80;29.50;;;;;;5073226;28;20555;-70
2021/03/31 12:08:58;;;;;;;7.90;6.17;;;26.90;30.20;;;;;;5075170;28;20440;-70
2021/03/31 12:11:24;;;;;;;11.03;7.17;;;26.50;32.30;;;;;;5076676;28;20451;-70
2021/03/31 12:13:51;;;;;;;9.03;6.87;;;26.40;32.90;;;;;;5076902;28;20441;-70
2021/03/31 12:16:17;;;;;;;10.57;7.53;;;26.40;32.80;;;;;;5076730;28;20468;-70
2021/03/31 12:18:43;;;;;;;8.27;6.83;;;26.20;32.30;;;;;;5077027;28;20445;-70
2021/03/31 12:21:10;;;;;;;12.53;6.27;;;26.00;32.60;;;;;;5076690;28;20492;-70
2021/03/31 12:23:37;;;;;;;7.23;6.43;;;26.00;32.50;;;;;;5076896;28;20483;-70
2021/03/31 12:26:05;;;;;;;11.43;5.60;;;25.90;31.50;;;;;;5076268;28;20550;-69
2021/03/31 12:28:34;;;;;;;10.77;7.37;;;25.90;33.00;;;;;;5076700;28;20437;-70
2021/03/31 12:31:00;;;;;;;7.47;5.97;;;25.40;32.70;;;;;;5076625;28;20446;-70
2021/03/31 12:33:26;;;;;;;9.93;7.57;;;25.00;34.60;;;;;;5076771;28;20486;-70
2021/03/31 12:35:53;;;;;;;9.60;7.13;;;24.90;34.00;;;;;;5076766;28;20472;-70
2021/03/31 12:38:21;;;;;;;8.70;6.93;;;24.60;34.00;;;;;;5076411;28;20493;-70
2021/03/31 12:40:47;;;;;;;9.57;7.03;;;24.70;35.80;;;;;;5076283;28;20454;-70
2021/03/31 12:43:13;;;;;;;9.87;7.30;;;24.80;33.70;;;;;;5076509;28;20450;-70
2021/03/31 12:45:40;;;;;;;13.27;7.10;;;24.60;33.10;;;;;;5076170;28;20869;-70
2021/03/31 12:48:07;;;;;;;8.30;6.43;;;24.50;33.70;;;;;;5076422;28;20775;-70
2021/03/31 12:50:35;;;;;;;9.33;6.90;;;24.40;33.70;;;;;;5076552;28;20507;-70
2021/03/31 12:53:03;;;;;;;10.50;7.40;;;24.50;34.00;;;;;;5076577;28;20935;-70
2021/03/31 12:55:34;;;;;;;9.83;6.90;;;24.30;34.10;;;;;;5076555;28;20462;-70
2021/03/31 12:58:06;;;;;;;9.37;6.73;;;24.40;35.20;;;;;;5076150;28;20534;-70
2021/03/31 13:00:32;;;;;;;8.37;6.17;;;24.60;34.30;;;;;;5076160;28;20447;-70
2021/03/31 13:02:59;;;;;;;9.17;7.13;;;24.70;34.00;;;;;;5076284;28;20539;-70
2021/03/31 13:08:13;;;;;;;11.73;7.50;;;25.00;33.90;;;;;;5075335;28;20439;-70
2021/03/31 13:10:41;;;;;;;11.40;7.93;;;24.80;34.20;;;;;;5075901;28;20502;-70